Lake View, NY (14085)

10:16 PM EDT on October 31, 2014 (GMT -0400)
Eden | Change Station
CLOSE
Current Station
Personal Weather Station
Location: Eden, NY
Elevation: 1010 ft
Nearby Weather Stations

Elev 1010 ft 42.65 °N, 78.87 °W | Updated 9 minutes ago

Mostly Cloudy
Mostly Cloudy
41.1 °F
Feels Like 41 °F
N
0.0
Wind Variable Wind from ESE
Gusts 0.0 mph

Today
High -- | Low -- °F
--% Chance of Precip.
Yesterday
High -- | Low -- °F
Precip. -- in
7:48 AM 6:09 PM
First Quarter, 61% visible
Pressure 29.97 in
Visibility 7.0 miles
Clouds Overcast 2200 ft
Windchill 41 °F
Dew Point 40 °F
Humidity 95%
Rainfall 0.00 in
Snow Depth Not available.
UV 0 out of 12
Pollen .10 out of 12
Air Quality Not available.
Flu Activity Not available.
METAR KBUF 010154Z 10005KT 7SM -RA OVC022 06/04 A2996 RMK AO2 SLP149 BKN V SCT P0001 T00610044

More Conditions Fewer Conditions

Pressure 29.97 in
Visibility 7.0 miles
Clouds Overcast 2200 ft
Windchill 41 °F
Dew Point 40 °F
Humidity 95%
Rainfall 0.00 in
Snow Depth Not available.
UV 0 out of 12
Pollen .10 out of 12
Air Quality Not available.
Flu Activity Not available.
METAR KBUF 010154Z 10005KT 7SM -RA OVC022 06/04 A2996 RMK AO2 SLP149 BKN V SCT P0001 T00610044

More Conditions Fewer Conditions

10-Day Weather Forecast

Almanac

Astronomy

Oct. 31, 2014 Rise Set
Actual Time
Civil Twilight
Nautical Twilight
Astronomical Twilight
Moon
Length of Visible Light
Length of Day
Tomorrow will be .
, % of the Moon is Illuminated

Today's Extremes

State Highs State Lows

Community

WunderPhotos

Upload Photos

1,766,823 photos uploaded!

WunderBlogs® & News

Nearby

Air Quality

  Air Quality AQ Index Pollutant
Not available.

Snow Depth

Station Depth Elevation

Earthquake Activity

City Distance Mag. Time & Date
Minimum magnitude displayed is 2.5.

Coastal Water Temperatures

Place Temperature

Nearby Weather Stations